Time,TemperatureF,DewpointF,PressureIn,WindDirection,WindDirectionDegrees,WindSpeedMPH,WindSpeedGustMPH,Humidity,HourlyPrecipIn,Conditions,Clouds,dailyrainin,SoftwareType,DateUTC
2013-04-07 00:02:00,52.4,48.2,30.13,SSE,158,0.0,0.7,86,0.00,,,0.00,WUHU216HW,2013-04-07 07:02:00,
2013-04-07 00:07:00,52.4,48.0,30.13,SSE,158,0.2,0.7,85,0.00,,,0.00,WUHU216HW,2013-04-07 07:07:00,
2013-04-07 00:12:00,52.2,47.8,30.13,SE,135,0.0,0.4,85,0.00,,,0.00,WUHU216HW,2013-04-07 07:12:00,
2013-04-07 00:17:00,52.2,47.8,30.13,ENE,68,0.2,1.1,85,0.00,,,0.00,WUHU216HW,2013-04-07 07:17:00,
2013-04-07 00:22:00,52.0,47.6,30.13,ENE,68,0.0,1.1,85,0.00,,,0.00,WUHU216HW,2013-04-07 07:22:00,
2013-04-07 00:28:00,51.7,47.5,30.12,North,0,0.4,2.0,86,0.00,,,0.00,WUHU216HW,2013-04-07 07:28:00,
2013-04-07 00:33:00,51.7,47.5,30.13,North,0,0.2,2.0,86,0.00,,,0.00,WUHU216HW,2013-04-07 07:33:00,
2013-04-07 00:38:00,51.5,47.3,30.13,North,0,0.7,0.9,86,0.00,,,0.00,WUHU216HW,2013-04-07 07:38:00,
2013-04-07 00:43:00,51.5,47.3,30.13,NNE,23,0.4,0.9,86,0.00,,,0.00,WUHU216HW,2013-04-07 07:43:00,
2013-04-07 00:48:00,51.3,47.2,30.13,NE,45,0.4,0.9,86,0.00,,,0.00,WUHU216HW,2013-04-07 07:48:00,
2013-04-07 00:53:00,51.1,47.0,30.13,NE,45,0.0,0.9,86,0.00,,,0.00,WUHU216HW,2013-04-07 07:53:00,
2013-04-07 00:58:00,50.9,46.8,30.13,ENE,68,0.0,0.0,86,0.00,,,0.00,WUHU216HW,2013-04-07 07:58:00,
2013-04-07 01:03:00,50.8,46.6,30.13,SSE,158,0.0,0.9,86,0.00,,,0.00,WUHU216HW,2013-04-07 08:03:00,
2013-04-07 01:08:00,50.6,46.4,30.13,North,0,0.0,0.9,86,0.00,,,0.00,WUHU216HW,2013-04-07 08:08:00,
2013-04-07 01:13:00,50.4,46.3,30.13,West,270,1.1,1.1,86,0.00,,,0.00,WUHU216HW,2013-04-07 08:13:00,
2013-04-07 01:18:00,50.4,46.3,30.13,NW,315,0.9,1.1,86,0.00,,,0.00,WUHU216HW,2013-04-07 08:18:00,
2013-04-07 01:24:00,50.4,46.6,30.13,West,270,2.5,3.8,87,0.00,,,0.00,WUHU216HW,2013-04-07 08:24:00,
2013-04-07 01:29:00,50.6,46.4,30.13,WSW,248,1.1,3.8,86,0.00,,,0.00,WUHU216HW,2013-04-07 08:29:00,
2013-04-07 01:34:00,50.6,46.4,30.13,WSW,248,0.2,1.8,86,0.00,,,0.00,WUHU216HW,2013-04-07 08:34:00,
2013-04-07 01:39:00,50.8,46.6,30.13,West,270,0.9,1.6,86,0.00,,,0.00,WUHU216HW,2013-04-07 08:39:00,
2013-04-07 01:44:00,50.9,46.8,30.13,WSW,248,3.4,6.3,86,0.00,,,0.00,WUHU216HW,2013-04-07 08:44:00,
2013-04-07 01:49:00,51.1,47.0,30.12,SW,225,2.5,6.3,86,0.00,,,0.00,WUHU216HW,2013-04-07 08:49:00,
2013-04-07 01:54:00,51.5,47.3,30.12,WSW,248,2.0,4.3,86,0.00,,,0.00,WUHU216HW,2013-04-07 08:54:00,
2013-04-07 01:59:00,51.5,47.3,30.12,SW,225,1.8,4.7,86,0.00,,,0.00,WUHU216HW,2013-04-07 08:59:00,
2013-04-07 02:05:00,51.5,47.3,30.12,SSW,203,0.4,4.7,86,0.00,,,0.00,WUHU216HW,2013-04-07 09:05:00,
2013-04-07 02:10:00,51.7,47.5,30.12,West,270,0.0,1.8,86,0.00,,,0.00,WUHU216HW,2013-04-07 09:10:00,
2013-04-07 02:15:00,51.7,47.5,30.12,West,270,0.7,1.3,86,0.00,,,0.00,WUHU216HW,2013-04-07 09:15:00,
2013-04-07 02:20:00,51.7,47.5,30.12,NNW,338,0.2,1.3,86,0.00,,,0.00,WUHU216HW,2013-04-07 09:20:00,
2013-04-07 02:25:00,51.8,47.7,30.12,NNE,23,1.1,1.1,86,0.00,,,0.00,WUHU216HW,2013-04-07 09:25:00,
2013-04-07 02:30:00,51.8,47.7,30.12,South,180,0.2,1.1,86,0.00,,,0.00,WUHU216HW,2013-04-07 09:30:00,
2013-04-07 02:35:00,51.8,47.4,30.11,SSW,203,0.7,1.8,85,0.00,,,0.00,WUHU216HW,2013-04-07 09:35:00,
2013-04-07 02:40:00,52.0,47.6,30.11,SW,225,0.4,1.8,85,0.00,,,0.00,WUHU216HW,2013-04-07 09:40:00,
2013-04-07 02:46:00,52.0,47.6,30.11,WSW,248,0.7,0.9,85,0.00,,,0.00,WUHU216HW,2013-04-07 09:46:00,
2013-04-07 02:51:00,52.0,47.6,30.11,West,270,0.9,0.9,85,0.00,,,0.00,WUHU216HW,2013-04-07 09:51:00,
2013-04-07 02:56:00,52.0,47.4,30.11,ENE,68,0.2,2.2,84,0.00,,,0.00,WUHU216HW,2013-04-07 09:56:00,
2013-04-07 03:01:00,52.0,47.4,30.10,SSW,203,2.2,2.2,84,0.00,,,0.00,WUHU216HW,2013-04-07 10:01:00,
2013-04-07 03:07:00,52.2,47.5,30.10,SW,225,0.7,2.7,84,0.00,,,0.00,WUHU216HW,2013-04-07 10:07:00,
2013-04-07 03:12:00,52.2,47.5,30.11,West,270,1.8,2.7,84,0.00,,,0.00,WUHU216HW,2013-04-07 10:12:00,
2013-04-07 03:17:00,52.2,47.5,30.10,WSW,248,4.3,4.3,84,0.00,,,0.00,WUHU216HW,2013-04-07 10:17:00,
2013-04-07 03:22:00,52.2,47.5,30.10,WSW,248,1.1,4.3,84,0.00,,,0.00,WUHU216HW,2013-04-07 10:22:00,
2013-04-07 03:27:00,52.0,47.4,30.10,West,270,1.3,2.7,84,0.00,,,0.00,WUHU216HW,2013-04-07 10:27:00,
2013-04-07 03:32:00,52.2,47.5,30.09,SW,225,1.1,2.0,84,0.00,,,0.00,WUHU216HW,2013-04-07 10:32:00,
2013-04-07 03:37:00,52.0,47.4,30.09,SSW,203,1.6,3.4,84,0.00,,,0.00,WUHU216HW,2013-04-07 10:37:00,
2013-04-07 03:42:00,52.0,47.4,30.09,WSW,248,1.1,3.4,84,0.00,,,0.00,WUHU216HW,2013-04-07 10:42:00,
2013-04-07 03:47:00,52.0,47.6,30.09,WSW,248,1.3,3.8,85,0.00,,,0.00,WUHU216HW,2013-04-07 10:47:00,
2013-04-07 03:52:00,52.0,47.6,30.09,SSW,203,1.6,3.8,85,0.00,,,0.00,WUHU216HW,2013-04-07 10:52:00,
2013-04-07 03:57:00,52.2,47.8,30.08,SSW,203,2.2,4.0,85,0.00,,,0.00,WUHU216HW,2013-04-07 10:57:00,
2013-04-07 04:02:00,52.2,47.8,30.08,West,270,2.5,4.0,85,0.00,,,0.00,WUHU216HW,2013-04-07 11:02:00,
2013-04-07 04:07:00,52.4,48.0,30.08,West,270,2.5,7.4,85,0.00,,,0.00,WUHU216HW,2013-04-07 11:07:00,
2013-04-07 04:12:00,52.4,48.0,30.08,WNW,293,1.8,7.4,85,0.00,,,0.00,WUHU216HW,2013-04-07 11:12:00,
2013-04-07 04:18:00,52.4,48.0,30.08,SW,225,2.5,5.1,85,0.00,,,0.00,WUHU216HW,2013-04-07 11:18:00,
2013-04-07 04:23:00,52.6,48.4,30.08,West,270,4.0,5.4,86,0.00,,,0.00,WUHU216HW,2013-04-07 11:23:00,
2013-04-07 04:28:00,52.6,48.4,30.08,WSW,248,4.5,5.4,86,0.00,,,0.00,WUHU216HW,2013-04-07 11:28:00,
2013-04-07 04:33:00,52.6,48.4,30.08,WSW,248,5.8,5.8,86,0.00,,,0.00,WUHU216HW,2013-04-07 11:33:00,
2013-04-07 04:38:00,52.6,48.4,30.08,West,270,2.9,5.8,86,0.00,,,0.00,WUHU216HW,2013-04-07 11:38:00,
2013-04-07 04:43:00,52.6,48.4,30.08,West,270,4.7,6.0,86,0.00,,,0.00,WUHU216HW,2013-04-07 11:43:00,
2013-04-07 04:48:00,52.6,48.4,30.08,West,270,4.3,6.0,86,0.00,,,0.00,WUHU216HW,2013-04-07 11:48:00,
2013-04-07 04:53:00,52.6,48.4,30.08,WSW,248,2.0,5.1,86,0.00,,,0.00,WUHU216HW,2013-04-07 11:53:00,
2013-04-07 04:58:00,52.6,48.4,30.08,West,270,4.3,5.1,86,0.00,,,0.00,WUHU216HW,2013-04-07 11:58:00,
2013-04-07 05:03:00,52.6,48.4,30.08,WSW,248,2.0,4.3,86,0.00,,,0.00,WUHU216HW,2013-04-07 12:03:00,
2013-04-07 05:08:00,52.7,48.6,30.08,West,270,4.0,5.8,86,0.00,,,0.00,WUHU216HW,2013-04-07 12:08:00,
2013-04-07 05:13:00,52.7,48.6,30.08,West,270,2.2,5.8,86,0.00,,,0.00,WUHU216HW,2013-04-07 12:13:00,
2013-04-07 05:19:00,52.7,48.6,30.08,SSW,203,0.9,4.7,86,0.00,,,0.00,WUHU216HW,2013-04-07 12:19:00,
2013-04-07 05:24:00,52.7,48.6,30.08,WSW,248,1.1,3.6,86,0.00,,,0.00,WUHU216HW,2013-04-07 12:24:00,
2013-04-07 05:29:00,52.9,48.8,30.08,West,270,2.5,3.8,86,0.00,,,0.00,WUHU216HW,2013-04-07 12:29:00,
2013-04-07 05:34:00,52.9,48.8,30.08,WNW,293,1.1,4.5,86,0.00,,,0.00,WUHU216HW,2013-04-07 12:34:00,
2013-04-07 05:39:00,52.9,48.8,30.07,WSW,248,1.6,4.5,86,0.00,,,0.00,WUHU216HW,2013-04-07 12:39:00,
2013-04-07 05:44:00,52.9,48.8,30.07,WNW,293,3.6,3.6,86,0.00,,,0.00,WUHU216HW,2013-04-07 12:44:00,
2013-04-07 05:49:00,52.9,48.8,30.08,WSW,248,4.7,5.1,86,0.00,,,0.00,WUHU216HW,2013-04-07 12:49:00,
2013-04-07 05:54:00,52.9,48.8,30.08,West,270,6.3,6.3,86,0.00,,,0.00,WUHU216HW,2013-04-07 12:54:00,
2013-04-07 05:59:00,52.9,48.8,30.08,WNW,293,2.5,6.3,86,0.00,,,0.00,WUHU216HW,2013-04-07 12:59:00,
2013-04-07 06:04:00,52.9,48.8,30.07,WSW,248,2.5,6.3,86,0.00,,,0.00,WUHU216HW,2013-04-07 13:04:00,
2013-04-07 06:09:00,52.9,48.8,30.07,WNW,293,3.1,6.3,86,0.00,,,0.00,WUHU216HW,2013-04-07 13:09:00,
2013-04-07 06:15:00,52.9,48.8,30.07,WSW,248,2.5,6.3,86,0.00,,,0.00,WUHU216HW,2013-04-07 13:15:00,
2013-04-07 06:20:00,52.9,48.8,30.07,West,270,2.9,4.0,86,0.00,,,0.00,WUHU216HW,2013-04-07 13:20:00,
2013-04-07 06:25:00,52.9,48.8,30.07,SW,225,3.4,5.4,86,0.00,,,0.00,WUHU216HW,2013-04-07 13:25:00,
2013-04-07 06:30:00,52.9,48.8,30.07,SSW,203,3.8,6.3,86,0.00,,,0.00,WUHU216HW,2013-04-07 13:30:00,
2013-04-07 06:35:00,52.9,48.8,30.08,SSW,203,2.5,6.3,86,0.00,,,0.00,WUHU216HW,2013-04-07 13:35:00,
2013-04-07 06:40:00,52.9,48.8,30.08,NW,315,1.1,6.0,86,0.00,,,0.00,WUHU216HW,2013-04-07 13:40:00,
2013-04-07 06:45:00,52.9,48.8,30.08,West,270,1.8,2.5,86,0.00,,,0.00,WUHU216HW,2013-04-07 13:45:00,
2013-04-07 06:51:00,52.9,48.8,30.08,West,270,3.4,4.7,86,0.00,,,0.00,WUHU216HW,2013-04-07 13:51:00,
2013-04-07 06:56:00,52.9,48.8,30.08,SW,225,0.9,4.7,86,0.00,,,0.00,WUHU216HW,2013-04-07 13:56:00,
2013-04-07 07:02:00,52.9,48.8,30.08,SW,225,0.0,3.6,86,0.00,,,0.00,WUHU216HW,2013-04-07 14:02:00,
2013-04-07 07:07:00,52.9,48.8,30.08,NW,315,0.4,0.9,86,0.00,,,0.00,WUHU216HW,2013-04-07 14:07:00,
2013-04-07 07:12:00,52.9,48.8,30.08,WNW,293,1.3,1.3,86,0.00,,,0.00,WUHU216HW,2013-04-07 14:12:00,
2013-04-07 07:17:00,52.9,48.8,30.08,WNW,293,0.0,1.3,86,0.00,,,0.00,WUHU216HW,2013-04-07 14:17:00,
2013-04-07 07:22:00,52.9,48.8,30.08,WNW,293,0.4,1.1,86,0.00,,,0.00,WUHU216HW,2013-04-07 14:22:00,
2013-04-07 07:27:00,52.9,48.8,30.09,WNW,293,0.7,1.1,86,0.00,,,0.00,WUHU216HW,2013-04-07 14:27:00,
2013-04-07 07:32:00,53.3,49.1,30.09,WNW,293,2.2,2.5,86,0.00,,,0.00,WUHU216HW,2013-04-07 14:32:00,
2013-04-07 07:37:00,53.5,49.3,30.09,WSW,248,1.8,2.5,86,0.00,,,0.00,WUHU216HW,2013-04-07 14:37:00,
2013-04-07 07:42:00,53.8,49.7,30.09,NW,315,1.6,3.4,86,0.00,,,0.00,WUHU216HW,2013-04-07 14:42:00,
2013-04-07 07:47:00,54.0,49.6,30.09,West,270,0.7,4.0,85,0.00,,,0.00,WUHU216HW,2013-04-07 14:47:00,
2013-04-07 07:52:00,54.4,50.0,30.08,West,270,0.0,2.0,85,0.00,,,0.00,WUHU216HW,2013-04-07 14:52:00,
2013-04-07 07:58:00,54.7,50.0,30.08,SW,225,1.1,2.0,84,0.00,,,0.00,WUHU216HW,2013-04-07 14:58:00,
2013-04-07 08:03:00,54.9,49.8,30.08,SSW,203,0.9,1.8,83,0.00,,,0.00,WUHU216HW,2013-04-07 15:03:00,
2013-04-07 08:08:00,54.7,49.6,30.09,WNW,293,1.8,2.5,83,0.00,,,0.00,WUHU216HW,2013-04-07 15:08:00,
2013-04-07 08:13:00,54.7,49.6,30.08,NNW,338,1.3,2.5,83,0.00,,,0.00,WUHU216HW,2013-04-07 15:13:00,
2013-04-07 08:18:00,54.9,49.8,30.08,West,270,2.0,2.0,83,0.00,,,0.00,WUHU216HW,2013-04-07 15:18:00,
2013-04-07 08:23:00,55.3,49.8,30.08,WNW,293,1.3,2.9,82,0.00,,,0.00,WUHU216HW,2013-04-07 15:23:00,
2013-04-07 08:28:00,55.4,50.0,30.08,WNW,293,2.5,2.9,82,0.00,,,0.00,WUHU216HW,2013-04-07 15:28:00,
2013-04-07 08:33:00,55.6,49.9,30.08,SE,135,0.4,3.8,81,0.00,,,0.00,WUHU216HW,2013-04-07 15:33:00,
2013-04-07 08:38:00,55.8,50.1,30.08,NW,315,1.1,3.8,81,0.00,,,0.00,WUHU216HW,2013-04-07 15:38:00,
2013-04-07 08:43:00,56.2,50.4,30.07,South,180,2.5,2.5,81,0.00,,,0.00,WUHU216HW,2013-04-07 15:43:00,
2013-04-07 08:49:00,56.5,50.0,30.07,SW,225,1.8,4.0,79,0.00,,,0.00,WUHU216HW,2013-04-07 15:49:00,
2013-04-07 08:54:00,56.7,50.6,30.07,NNW,338,1.1,5.4,80,0.00,,,0.00,WUHU216HW,2013-04-07 15:54:00,
2013-04-07 08:59:00,57.2,51.1,30.07,West,270,2.5,5.4,80,0.00,,,0.00,WUHU216HW,2013-04-07 15:59:00,
2013-04-07 09:04:00,58.0,51.5,30.06,NW,315,2.7,2.7,79,0.00,,,0.00,WUHU216HW,2013-04-07 16:04:00,
2013-04-07 09:09:00,58.1,51.3,30.06,WNW,293,0.9,2.9,78,0.00,,,0.00,WUHU216HW,2013-04-07 16:09:00,
2013-04-07 09:14:00,58.3,51.5,30.07,North,0,1.1,2.9,78,0.00,,,0.00,WUHU216HW,2013-04-07 16:14:00,
2013-04-07 09:20:00,58.3,51.1,30.07,WNW,293,0.4,2.5,77,0.00,,,0.00,WUHU216HW,2013-04-07 16:20:00,
2013-04-07 09:25:00,58.5,51.3,30.07,ESE,113,1.1,2.5,77,0.00,,,0.00,WUHU216HW,2013-04-07 16:25:00,
2013-04-07 09:30:00,58.9,51.7,30.07,East,90,1.6,2.2,77,0.00,,,0.00,WUHU216HW,2013-04-07 16:30:00,
2013-04-07 09:35:00,59.0,51.1,30.07,ESE,113,1.6,4.0,75,0.00,,,0.00,WUHU216HW,2013-04-07 16:35:00,
2013-04-07 09:40:00,59.2,51.3,30.07,East,90,1.8,2.9,75,0.00,,,0.00,WUHU216HW,2013-04-07 16:40:00,
2013-04-07 09:45:00,59.8,51.8,30.07,ESE,113,1.3,3.4,75,0.00,,,0.00,WUHU216HW,2013-04-07 16:45:00,
2013-04-07 09:50:00,60.1,51.5,30.07,ENE,68,3.8,3.8,73,0.00,,,0.00,WUHU216HW,2013-04-07 16:50:00,
2013-04-07 09:55:00,60.1,51.8,30.07,East,90,2.5,3.8,74,0.00,,,0.00,WUHU216HW,2013-04-07 16:55:00,
2013-04-07 10:00:00,60.1,51.8,30.07,SE,135,0.4,3.8,74,0.00,,,0.00,WUHU216HW,2013-04-07 17:00:00,
2013-04-07 10:05:00,60.1,51.5,30.08,SW,225,2.2,4.9,73,0.00,,,0.00,WUHU216HW,2013-04-07 17:05:00,
2013-04-07 10:11:00,60.3,52.0,30.08,WNW,293,4.3,4.9,74,0.00,,,0.00,WUHU216HW,2013-04-07 17:11:00,
2013-04-07 10:16:00,60.3,51.7,30.08,SW,225,2.9,5.6,73,0.00,,,0.00,WUHU216HW,2013-04-07 17:16:00,
2013-04-07 10:21:00,60.3,51.7,30.08,WSW,248,2.2,5.6,73,0.00,,,0.00,WUHU216HW,2013-04-07 17:21:00,
2013-04-07 10:26:00,60.5,51.8,30.08,WNW,293,5.4,5.4,73,0.00,,,0.00,WUHU216HW,2013-04-07 17:26:00,
2013-04-07 10:31:00,60.1,51.5,30.08,WSW,248,1.6,5.4,73,0.00,,,0.00,WUHU216HW,2013-04-07 17:31:00,
2013-04-07 10:36:00,59.9,51.7,30.08,West,270,1.6,5.1,74,0.00,,,0.00,WUHU216HW,2013-04-07 17:36:00,
2013-04-07 10:41:00,60.1,51.8,30.08,West,270,3.6,4.7,74,0.00,,,0.00,WUHU216HW,2013-04-07 17:41:00,
2013-04-07 10:46:00,60.3,52.0,30.08,WNW,293,4.9,4.9,74,0.00,,,0.00,WUHU216HW,2013-04-07 17:46:00,
2013-04-07 10:52:00,60.3,52.0,30.08,SSW,203,1.3,4.9,74,0.00,,,0.00,WUHU216HW,2013-04-07 17:52:00,
2013-04-07 10:57:00,60.3,52.0,30.08,SSW,203,3.1,6.3,74,0.00,,,0.00,WUHU216HW,2013-04-07 17:57:00,
2013-04-07 11:02:00,60.3,51.7,30.08,WSW,248,3.6,6.3,73,0.00,,,0.00,WUHU216HW,2013-04-07 18:02:00,
2013-04-07 11:07:00,60.3,52.0,30.08,SSW,203,2.7,5.4,74,0.00,,,0.00,WUHU216HW,2013-04-07 18:07:00,
2013-04-07 11:12:00,60.7,52.4,30.08,SW,225,4.0,4.0,74,0.00,,,0.00,WUHU216HW,2013-04-07 18:12:00,
2013-04-07 11:17:00,60.8,52.2,30.08,West,270,4.5,4.5,73,0.00,,,0.00,WUHU216HW,2013-04-07 18:17:00,
2013-04-07 11:22:00,60.8,52.2,30.08,West,270,2.9,5.6,73,0.00,,,0.00,WUHU216HW,2013-04-07 18:22:00,
2013-04-07 11:27:00,60.8,51.8,30.08,SW,225,6.9,6.9,72,0.00,,,0.00,WUHU216HW,2013-04-07 18:27:00,
2013-04-07 11:32:00,60.5,51.8,30.08,WNW,293,1.8,6.9,73,0.00,,,0.00,WUHU216HW,2013-04-07 18:32:00,
2013-04-07 11:37:00,60.7,52.4,30.08,West,270,1.3,6.3,74,0.00,,,0.00,WUHU216HW,2013-04-07 18:37:00,
2013-04-07 11:42:00,61.0,52.4,30.08,WNW,293,4.0,5.4,73,0.00,,,0.00,WUHU216HW,2013-04-07 18:42:00,
2013-04-07 11:47:00,61.0,52.4,30.08,West,270,8.3,8.3,73,0.00,,,0.00,WUHU216HW,2013-04-07 18:47:00,
2013-04-07 11:52:00,60.7,52.0,30.08,WSW,248,1.6,8.3,73,0.00,,,0.00,WUHU216HW,2013-04-07 18:52:00,
2013-04-07 11:58:00,60.7,52.4,30.07,SW,225,4.9,7.2,74,0.00,,,0.00,WUHU216HW,2013-04-07 18:58:00,
2013-04-07 12:03:00,60.8,52.6,30.08,WSW,248,9.2,9.2,74,0.00,,,0.00,WUHU216HW,2013-04-07 19:03:00,
2013-04-07 12:08:00,61.0,52.4,30.07,WSW,248,2.5,9.2,73,0.00,,,0.00,WUHU216HW,2013-04-07 19:08:00,
2013-04-07 12:13:00,61.4,53.0,30.07,West,270,2.5,9.2,74,0.00,,,0.00,WUHU216HW,2013-04-07 19:13:00,
2013-04-07 12:18:00,61.9,53.2,30.07,West,270,3.6,9.8,73,0.00,,,0.00,WUHU216HW,2013-04-07 19:18:00,
2013-04-07 12:23:00,62.1,53.4,30.07,WNW,293,5.1,9.8,73,0.00,,,0.00,WUHU216HW,2013-04-07 19:23:00,
2013-04-07 12:28:00,61.7,53.0,30.07,West,270,6.5,6.5,73,0.00,,,0.00,WUHU216HW,2013-04-07 19:28:00,
2013-04-07 12:33:00,61.6,52.8,30.06,West,270,2.7,7.6,73,0.00,,,0.00,WUHU216HW,2013-04-07 19:33:00,
2013-04-07 12:38:00,61.4,53.0,30.06,West,270,5.6,7.6,74,0.00,,,0.00,WUHU216HW,2013-04-07 19:38:00,
2013-04-07 12:43:00,61.6,53.2,30.06,WNW,293,2.7,7.8,74,0.00,,,0.00,WUHU216HW,2013-04-07 19:43:00,
2013-04-07 12:48:00,61.6,52.8,30.06,WSW,248,2.2,7.8,73,0.00,,,0.00,WUHU216HW,2013-04-07 19:48:00,
2013-04-07 12:53:00,61.2,52.6,30.05,SW,225,3.4,6.7,73,0.00,,,0.00,WUHU216HW,2013-04-07 19:53:00,
2013-04-07 12:58:00,61.2,52.9,30.05,SSW,203,4.7,6.7,74,0.00,,,0.00,WUHU216HW,2013-04-07 19:58:00,
2013-04-07 13:03:00,61.0,52.8,30.06,SSW,203,2.5,5.1,74,0.00,,,0.00,WUHU216HW,2013-04-07 20:03:00,
2013-04-07 13:08:00,61.2,52.9,30.05,West,270,2.5,5.6,74,0.00,,,0.00,WUHU216HW,2013-04-07 20:08:00,
2013-04-07 13:13:00,61.2,52.9,30.04,West,270,2.5,5.6,74,0.00,,,0.00,WUHU216HW,2013-04-07 20:13:00,
2013-04-07 13:18:00,61.2,52.9,30.04,SW,225,4.0,5.4,74,0.00,,,0.00,WUHU216HW,2013-04-07 20:18:00,
2013-04-07 13:23:00,61.2,52.6,30.04,SW,225,5.4,5.4,73,0.00,,,0.00,WUHU216HW,2013-04-07 20:23:00,
2013-04-07 13:29:00,61.2,52.6,30.03,WNW,293,2.0,9.8,73,0.00,,,0.00,WUHU216HW,2013-04-07 20:29:00,
2013-04-07 13:34:00,61.6,52.8,30.02,West,270,6.3,9.8,73,0.00,,,0.00,WUHU216HW,2013-04-07 20:34:00,
2013-04-07 13:39:00,62.3,53.1,30.02,WSW,248,5.8,10.1,72,0.00,,,0.00,WUHU216HW,2013-04-07 20:39:00,
2013-04-07 13:44:00,62.8,53.3,30.02,WSW,248,5.6,10.1,71,0.00,,,0.00,WUHU216HW,2013-04-07 20:44:00,
2013-04-07 13:49:00,63.4,53.0,30.02,WSW,248,5.1,7.8,69,0.00,,,0.00,WUHU216HW,2013-04-07 20:49:00,
2013-04-07 13:55:00,63.4,53.0,30.02,SSW,203,1.3,8.9,69,0.00,,,0.00,WUHU216HW,2013-04-07 20:55:00,
2013-04-07 14:00:00,63.9,53.2,30.02,West,270,6.7,13.6,68,0.00,,,0.00,WUHU216HW,2013-04-07 21:00:00,
2013-04-07 14:05:00,63.5,52.8,30.02,West,270,6.7,13.6,68,0.00,,,0.00,WUHU216HW,2013-04-07 21:05:00,
2013-04-07 14:10:00,63.7,53.4,30.01,SW,225,4.9,7.6,69,0.00,,,0.00,WUHU216HW,2013-04-07 21:10:00,
2013-04-07 14:15:00,63.7,52.1,30.00,WSW,248,5.1,7.6,66,0.00,,,0.00,WUHU216HW,2013-04-07 21:15:00,
2013-04-07 14:20:00,64.1,52.5,30.00,SW,225,4.7,7.4,66,0.00,,,0.00,WUHU216HW,2013-04-07 21:20:00,
2013-04-07 14:25:00,64.4,51.5,30.00,WNW,293,5.6,7.4,63,0.00,,,0.00,WUHU216HW,2013-04-07 21:25:00,
2013-04-07 14:30:00,64.6,51.3,30.00,WSW,248,9.2,9.4,62,0.00,,,0.00,WUHU216HW,2013-04-07 21:30:00,
2013-04-07 14:35:00,64.4,50.7,29.99,West,270,6.3,10.7,61,0.00,,,0.00,WUHU216HW,2013-04-07 21:35:00,
2013-04-07 14:40:00,64.4,50.7,29.99,West,270,4.9,10.7,61,0.00,,,0.00,WUHU216HW,2013-04-07 21:40:00,
2013-04-07 14:46:00,64.8,51.0,29.99,NNW,338,2.5,9.8,61,0.00,,,0.00,WUHU216HW,2013-04-07 21:46:00,
2013-04-07 14:51:00,64.8,50.6,29.99,SSW,203,5.6,9.2,60,0.00,,,0.00,WUHU216HW,2013-04-07 21:51:00,
2013-04-07 14:56:00,64.8,50.1,29.99,WSW,248,6.5,13.4,59,0.00,,,0.00,WUHU216HW,2013-04-07 21:56:00,
2013-04-07 15:01:00,64.8,50.6,29.98,West,270,7.6,13.4,60,0.00,,,0.00,WUHU216HW,2013-04-07 22:01:00,
2013-04-07 15:06:00,64.8,50.1,29.99,West,270,2.5,14.1,59,0.00,,,0.00,WUHU216HW,2013-04-07 22:06:00,
2013-04-07 15:11:00,64.6,50.0,29.98,WSW,248,3.6,14.1,59,0.00,,,0.00,WUHU216HW,2013-04-07 22:11:00,
2013-04-07 15:16:00,64.8,49.6,29.98,West,270,6.0,9.2,58,0.00,,,0.00,WUHU216HW,2013-04-07 22:16:00,
2013-04-07 15:22:00,64.4,49.8,29.98,WSW,248,6.5,9.2,59,0.00,,,0.00,WUHU216HW,2013-04-07 22:22:00,
2013-04-07 15:27:00,64.1,50.3,29.98,West,270,6.9,9.8,61,0.00,,,0.00,WUHU216HW,2013-04-07 22:27:00,
2013-04-07 15:32:00,64.3,50.5,29.99,WNW,293,11.2,13.6,61,0.00,,,0.00,WUHU216HW,2013-04-07 22:32:00,
2013-04-07 15:37:00,64.6,50.4,29.99,WSW,248,5.8,13.6,60,0.00,,,0.00,WUHU216HW,2013-04-07 22:37:00,
2013-04-07 15:42:00,64.4,50.2,29.99,SW,225,10.1,12.5,60,0.00,,,0.00,WUHU216HW,2013-04-07 22:42:00,
2013-04-07 15:47:00,63.5,49.4,29.98,SW,225,6.5,12.5,60,0.00,,,0.00,WUHU216HW,2013-04-07 22:47:00,
2013-04-07 15:52:00,63.7,50.1,29.98,WSW,248,12.3,12.3,61,0.00,,,0.00,WUHU216HW,2013-04-07 22:52:00,
2013-04-07 15:58:00,63.5,49.4,29.98,SW,225,13.0,13.0,60,0.00,,,0.00,WUHU216HW,2013-04-07 22:58:00,
2013-04-07 16:03:00,63.4,49.7,29.97,WSW,248,6.7,13.0,61,0.00,,,0.00,WUHU216HW,2013-04-07 23:03:00,
2013-04-07 16:08:00,63.4,49.7,29.98,SSW,203,6.7,10.3,61,0.00,,,0.00,WUHU216HW,2013-04-07 23:08:00,
2013-04-07 16:13:00,63.5,49.4,29.98,West,270,3.6,10.3,60,0.00,,,0.00,WUHU216HW,2013-04-07 23:13:00,
2013-04-07 16:18:00,63.7,50.1,29.97,WNW,293,5.1,7.6,61,0.00,,,0.00,WUHU216HW,2013-04-07 23:18:00,
2013-04-07 16:23:00,63.4,49.7,29.98,WSW,248,3.1,9.4,61,0.00,,,0.00,WUHU216HW,2013-04-07 23:23:00,
2013-04-07 16:28:00,63.0,49.3,29.97,WSW,248,8.7,10.3,61,0.00,,,0.00,WUHU216HW,2013-04-07 23:28:00,
2013-04-07 16:33:00,62.8,50.1,29.97,WSW,248,6.3,10.3,63,0.00,,,0.00,WUHU216HW,2013-04-07 23:33:00,
2013-04-07 16:38:00,63.0,50.2,29.97,NW,315,4.7,9.2,63,0.00,,,0.00,WUHU216HW,2013-04-07 23:38:00,
2013-04-07 16:43:00,63.0,49.8,29.97,WSW,248,4.0,7.8,62,0.00,,,0.00,WUHU216HW,2013-04-07 23:43:00,
2013-04-07 16:48:00,63.0,49.8,29.97,West,270,10.1,10.5,62,0.00,,,0.00,WUHU216HW,2013-04-07 23:48:00,
2013-04-07 16:53:00,62.3,49.5,29.96,WSW,248,6.5,10.5,63,0.00,,,0.00,WUHU216HW,2013-04-07 23:53:00,
2013-04-07 16:59:00,61.9,49.6,29.96,West,270,7.8,10.3,64,0.00,,,0.00,WUHU216HW,2013-04-07 23:59:00,
2013-04-07 17:04:00,61.7,49.9,29.96,WNW,293,4.5,10.3,65,0.00,,,0.00,WUHU216HW,2013-04-08 00:04:00,
2013-04-07 17:09:00,61.7,49.4,29.95,WSW,248,3.4,10.5,64,0.00,,,0.00,WUHU216HW,2013-04-08 00:09:00,
2013-04-07 17:14:00,61.6,49.3,29.95,SW,225,5.4,10.5,64,0.00,,,0.00,WUHU216HW,2013-04-08 00:14:00,
2013-04-07 17:19:00,61.2,49.4,29.96,WNW,293,3.1,7.4,65,0.00,,,0.00,WUHU216HW,2013-04-08 00:19:00,
2013-04-07 17:24:00,61.0,49.2,29.96,WSW,248,6.9,9.4,65,0.00,,,0.00,WUHU216HW,2013-04-08 00:24:00,
2013-04-07 17:30:00,60.7,48.9,29.96,WNW,293,6.5,9.4,65,0.00,,,0.00,WUHU216HW,2013-04-08 00:30:00,
2013-04-07 17:35:00,60.5,48.7,29.95,SW,225,7.2,8.5,65,0.00,,,0.00,WUHU216HW,2013-04-08 00:35:00,
2013-04-07 17:40:00,60.1,48.3,29.96,West,270,4.0,10.5,65,0.00,,,0.00,WUHU216HW,2013-04-08 00:40:00,
2013-04-07 17:45:00,59.8,48.0,29.95,SW,225,6.7,10.5,65,0.00,,,0.00,WUHU216HW,2013-04-08 00:45:00,
2013-04-07 17:50:00,59.4,48.1,29.95,WSW,248,1.8,8.1,66,0.00,,,0.00,WUHU216HW,2013-04-08 00:50:00,
2013-04-07 17:55:00,59.6,47.8,29.95,West,270,9.8,9.8,65,0.00,,,0.00,WUHU216HW,2013-04-08 00:55:00,
2013-04-07 18:00:00,58.9,47.1,29.94,NNW,338,1.1,12.8,65,0.00,,,0.00,WUHU216HW,2013-04-08 01:00:00,
2013-04-07 18:06:00,58.5,47.5,29.95,West,270,8.5,8.5,67,0.00,,,0.00,WUHU216HW,2013-04-08 01:06:00,
2013-04-07 18:11:00,58.3,47.3,29.94,SW,225,2.0,8.5,67,0.00,,,0.00,WUHU216HW,2013-04-08 01:11:00,
2013-04-07 18:16:00,57.8,47.3,29.94,West,270,5.1,8.5,68,0.00,,,0.00,WUHU216HW,2013-04-08 01:16:00,
2013-04-07 18:21:00,57.2,46.7,29.94,WNW,293,1.1,8.5,68,0.00,,,0.00,WUHU216HW,2013-04-08 01:21:00,
2013-04-07 18:26:00,57.2,47.2,29.94,WSW,248,0.7,5.8,69,0.00,,,0.00,WUHU216HW,2013-04-08 01:26:00,
2013-04-07 18:32:00,57.2,47.2,29.94,SE,135,1.1,4.5,69,0.00,,,0.00,WUHU216HW,2013-04-08 01:32:00,
2013-04-07 18:37:00,56.9,47.2,29.94,SW,225,1.8,4.5,70,0.00,,,0.00,WUHU216HW,2013-04-08 01:37:00,
2013-04-07 18:42:00,56.9,47.2,29.94,SSE,158,1.1,3.4,70,0.00,,,0.00,WUHU216HW,2013-04-08 01:42:00,
2013-04-07 18:47:00,56.7,47.1,29.93,ESE,113,2.9,7.4,70,0.00,,,0.00,WUHU216HW,2013-04-08 01:47:00,
2013-04-07 18:52:00,56.5,47.3,29.93,WSW,248,8.1,8.1,71,0.00,,,0.00,WUHU216HW,2013-04-08 01:52:00,
2013-04-07 18:57:00,56.2,47.3,29.93,SW,225,4.0,8.1,72,0.00,,,0.00,WUHU216HW,2013-04-08 01:57:00,
2013-04-07 19:02:00,55.8,47.3,29.93,SSE,158,1.6,5.4,73,0.00,,,0.00,WUHU216HW,2013-04-08 02:02:00,
2013-04-07 19:07:00,55.8,47.3,29.93,WSW,248,5.1,5.4,73,0.00,,,0.00,WUHU216HW,2013-04-08 02:07:00,
2013-04-07 19:12:00,55.4,46.9,29.93,West,270,9.4,10.5,73,0.00,,,0.00,WUHU216HW,2013-04-08 02:12:00,
2013-04-07 19:17:00,55.1,46.6,29.93,WNW,293,2.5,10.5,73,0.00,,,0.00,WUHU216HW,2013-04-08 02:17:00,
2013-04-07 19:22:00,55.1,46.3,29.93,West,270,8.3,8.3,72,0.00,,,0.00,WUHU216HW,2013-04-08 02:22:00,
2013-04-07 19:27:00,54.7,45.9,29.92,WNW,293,3.6,8.9,72,0.00,,,0.00,WUHU216HW,2013-04-08 02:27:00,
2013-04-07 19:33:00,54.4,45.6,29.92,SSW,203,6.5,11.2,72,0.00,,,0.00,WUHU216HW,2013-04-08 02:33:00,
2013-04-07 19:38:00,54.2,45.7,29.92,WSW,248,4.7,11.2,73,0.00,,,0.00,WUHU216HW,2013-04-08 02:38:00,
2013-04-07 19:43:00,53.8,45.4,29.92,SW,225,6.5,8.7,73,0.00,,,0.00,WUHU216HW,2013-04-08 02:43:00,
2013-04-07 19:48:00,53.6,45.2,29.92,SSW,203,3.4,8.7,73,0.00,,,0.00,WUHU216HW,2013-04-08 02:48:00,
2013-04-07 19:53:00,53.5,45.0,29.92,WSW,248,3.4,9.6,73,0.00,,,0.00,WUHU216HW,2013-04-08 02:53:00,
2013-04-07 19:58:00,53.3,44.8,29.92,South,180,4.7,13.2,73,0.00,,,0.00,WUHU216HW,2013-04-08 02:58:00,
2013-04-07 20:03:00,53.1,45.0,29.92,SSE,158,6.3,13.2,74,0.00,,,0.00,WUHU216HW,2013-04-08 03:03:00,
2013-04-07 20:08:00,52.9,44.8,29.91,WNW,293,9.2,9.8,74,0.00,,,0.00,WUHU216HW,2013-04-08 03:08:00,
2013-04-07 20:13:00,52.9,44.8,29.91,SW,225,7.2,9.8,74,0.00,,,0.00,WUHU216HW,2013-04-08 03:13:00,
2013-04-07 20:19:00,52.9,45.2,29.90,WNW,293,8.1,9.8,75,0.00,,,0.00,WUHU216HW,2013-04-08 03:19:00,
2013-04-07 20:24:00,52.7,45.0,29.90,SW,225,10.1,10.5,75,0.00,,,0.00,WUHU216HW,2013-04-08 03:24:00,
2013-04-07 20:29:00,52.7,45.0,29.90,WSW,248,15.9,15.9,75,0.00,,,0.00,WUHU216HW,2013-04-08 03:29:00,
2013-04-07 20:34:00,52.7,45.0,29.91,WSW,248,4.0,15.9,75,0.00,,,0.00,WUHU216HW,2013-04-08 03:34:00,
2013-04-07 20:39:00,52.6,45.2,29.91,SW,225,5.8,9.8,76,0.00,,,0.00,WUHU216HW,2013-04-08 03:39:00,
2013-04-07 20:45:00,52.6,45.2,29.91,SW,225,4.5,9.8,76,0.00,,,0.00,WUHU216HW,2013-04-08 03:45:00,
2013-04-07 20:50:00,52.6,45.2,29.90,West,270,4.0,8.9,76,0.00,,,0.00,WUHU216HW,2013-04-08 03:50:00,
2013-04-07 20:55:00,52.6,45.5,29.90,WSW,248,9.6,9.6,77,0.00,,,0.00,WUHU216HW,2013-04-08 03:55:00,
2013-04-07 21:00:00,52.6,46.3,29.91,West,270,6.3,10.5,79,0.00,,,0.00,WUHU216HW,2013-04-08 04:00:00,
2013-04-07 21:02:00,52.4,46.1,29.91,SW,225,6.9,10.5,79,0.00,,,0.00,WUHU216HW,2013-04-08 04:02:00,
2013-04-07 21:05:00,52.2,46.5,29.92,WNW,293,4.5,10.5,81,0.00,,,0.00,WUHU216HW,2013-04-08 04:05:00,
2013-04-07 21:10:00,52.0,47.0,29.90,WSW,248,3.6,9.2,83,0.00,,,0.00,WUHU216HW,2013-04-08 04:10:00,
2013-04-07 21:15:00,51.8,47.2,29.90,SSW,203,4.7,7.6,84,0.00,,,0.00,WUHU216HW,2013-04-08 04:15:00,
2013-04-07 21:20:00,51.5,47.1,29.89,WSW,248,7.4,7.6,85,0.00,,,0.00,WUHU216HW,2013-04-08 04:20:00,
2013-04-07 21:25:00,51.3,46.9,29.89,WSW,248,7.2,7.4,85,0.00,,,0.00,WUHU216HW,2013-04-08 04:25:00,
2013-04-07 21:30:00,51.3,46.9,29.89,West,270,4.0,7.8,85,0.00,,,0.00,WUHU216HW,2013-04-08 04:30:00,
2013-04-07 21:35:00,51.1,46.7,29.89,West,270,5.4,8.1,85,0.00,,,0.00,WUHU216HW,2013-04-08 04:35:00,
2013-04-07 21:40:00,51.1,46.7,29.88,WSW,248,5.8,8.1,85,0.00,,,0.00,WUHU216HW,2013-04-08 04:40:00,
2013-04-07 21:45:00,51.1,47.0,29.88,WSW,248,8.7,8.7,86,0.00,,,0.00,WUHU216HW,2013-04-08 04:45:00,
2013-04-07 21:50:00,51.1,47.0,29.88,WSW,248,5.4,8.7,86,0.00,,,0.00,WUHU216HW,2013-04-08 04:50:00,
2013-04-07 21:55:00,51.1,47.4,29.88,West,270,6.0,7.6,87,0.00,,,0.00,WUHU216HW,2013-04-08 04:55:00,
2013-04-07 22:01:00,51.3,47.5,29.88,West,270,5.6,7.6,87,0.00,,,0.00,WUHU216HW,2013-04-08 05:01:00,
2013-04-07 22:06:00,51.3,47.8,29.88,West,270,3.8,5.6,88,0.00,,,0.00,WUHU216HW,2013-04-08 05:06:00,
2013-04-07 22:11:00,51.3,48.2,29.87,SSW,203,5.1,5.1,89,0.00,,,0.00,WUHU216HW,2013-04-08 05:11:00,
2013-04-07 22:16:00,51.3,48.2,29.87,SW,225,2.7,6.5,89,0.00,,,0.00,WUHU216HW,2013-04-08 05:16:00,
2013-04-07 22:21:00,51.3,48.2,29.87,SW,225,4.0,6.5,89,0.00,,,0.00,WUHU216HW,2013-04-08 05:21:00,
2013-04-07 22:26:00,51.3,48.2,29.86,SW,225,4.0,4.0,89,0.00,,,0.00,WUHU216HW,2013-04-08 05:26:00,
2013-04-07 22:31:00,51.3,48.2,29.85,SSW,203,1.1,4.0,89,0.02,,,0.02,WUHU216HW,2013-04-08 05:31:00,
2013-04-07 22:36:00,51.3,48.2,29.85,SW,225,0.7,4.0,89,0.02,,,0.02,WUHU216HW,2013-04-08 05:36:00,
2013-04-07 22:41:00,51.3,48.2,29.84,WSW,248,1.6,3.4,89,0.04,,,0.04,WUHU216HW,2013-04-08 05:41:00,
2013-04-07 22:47:00,51.3,48.2,29.84,SW,225,1.1,5.1,89,0.04,,,0.04,WUHU216HW,2013-04-08 05:47:00,
2013-04-07 22:52:00,51.3,48.2,29.84,SSW,203,4.3,5.1,89,0.09,,,0.09,WUHU216HW,2013-04-08 05:52:00,
2013-04-07 22:57:00,51.1,48.0,29.84,South,180,2.7,4.3,89,0.09,,,0.09,WUHU216HW,2013-04-08 05:57:00,
2013-04-07 23:02:00,51.1,48.2,29.84,WSW,248,2.5,4.7,90,0.13,,,0.13,WUHU216HW,2013-04-08 06:02:00,
2013-04-07 23:07:00,51.1,48.2,29.83,WSW,248,3.6,7.6,90,0.17,,,0.17,WUHU216HW,2013-04-08 06:07:00,
2013-04-07 23:12:00,51.1,48.2,29.83,South,180,1.1,7.6,90,0.22,,,0.22,WUHU216HW,2013-04-08 06:12:00,
2013-04-07 23:17:00,51.3,48.7,29.83,West,270,1.6,6.3,91,0.22,,,0.22,WUHU216HW,2013-04-08 06:17:00,
2013-04-07 23:22:00,51.3,48.7,29.82,WSW,248,9.2,9.2,91,0.24,,,0.24,WUHU216HW,2013-04-08 06:22:00,
2013-04-07 23:27:00,51.5,48.9,29.82,West,270,4.0,9.2,91,0.26,,,0.26,WUHU216HW,2013-04-08 06:27:00,
2013-04-07 23:32:00,51.7,49.1,29.82,West,270,7.8,9.4,91,0.28,,,0.30,WUHU216HW,2013-04-08 06:32:00,
2013-04-07 23:37:00,51.7,49.1,29.82,SW,225,6.3,11.9,91,0.33,,,0.35,WUHU216HW,2013-04-08 06:37:00,
2013-04-07 23:42:00,51.7,49.1,29.81,West,270,15.4,15.4,91,0.35,,,0.39,WUHU216HW,2013-04-08 06:42:00,
2013-04-07 23:48:00,51.7,48.5,29.81,West,270,15.7,15.7,89,0.35,,,0.39,WUHU216HW,2013-04-08 06:48:00,
2013-04-07 23:53:00,51.7,48.5,29.80,WSW,248,11.6,23.7,89,0.30,,,0.39,WUHU216HW,2013-04-08 06:53:00,
2013-04-07 23:58:00,51.7,48.5,29.81,West,270,4.7,23.7,89,0.28,,,0.39,WUHU216HW,2013-04-08 06:58:00,